sensor_id;sensor_type;location;lat;lon;timestamp;pressure;altitude;pressure_sealevel;temperature;humidity
55289;BME280;41154;45.394;5.734;2023-05-12T00:00:09;96658.22;;;9.97;100.00
55289;BME280;41154;45.394;5.734;2023-05-12T00:02:38;96651.56;;;10.05;100.00
55289;BME280;41154;45.394;5.734;2023-05-12T00:05:04;96652.88;;;10.02;100.00
55289;BME280;41154;45.394;5.734;2023-05-12T00:07:31;96646.19;;;10.05;100.00
55289;BME280;41154;45.394;5.734;2023-05-12T00:09:56;96645.41;;;10.04;100.00
55289;BME280;41154;45.394;5.734;2023-05-12T00:12:22;96644.34;;;10.05;100.00
55289;BME280;41154;45.394;5.734;2023-05-12T00:14:48;96637.97;;;10.12;100.00
55289;BME280;41154;45.394;5.734;2023-05-12T00:17:13;96634.41;;;10.06;100.00
55289;BME280;41154;45.394;5.734;2023-05-12T00:19:39;96642.13;;;9.97;100.00
55289;BME280;41154;45.394;5.734;2023-05-12T00:22:09;96634.09;;;9.97;100.00
55289;BME280;41154;45.394;5.734;2023-05-12T00:24:34;96628.00;;;10.07;100.00
55289;BME280;41154;45.394;5.734;2023-05-12T00:27:00;96623.47;;;10.13;100.00
55289;BME280;41154;45.394;5.734;2023-05-12T00:29:26;96631.97;;;9.99;100.00
55289;BME280;41154;45.394;5.734;2023-05-12T00:31:54;96631.34;;;9.92;100.00
55289;BME280;41154;45.394;5.734;2023-05-12T00:34:20;96630.84;;;9.95;100.00
55289;BME280;41154;45.394;5.734;2023-05-12T00:36:45;96630.59;;;9.97;100.00
55289;BME280;41154;45.394;5.734;2023-05-12T00:39:11;96619.88;;;9.97;100.00
55289;BME280;41154;45.394;5.734;2023-05-12T00:41:37;96621.75;;;9.96;100.00
55289;BME280;41154;45.394;5.734;2023-05-12T00:44:03;96621.47;;;9.93;100.00
55289;BME280;41154;45.394;5.734;2023-05-12T00:46:30;96619.06;;;9.96;100.00
55289;BME280;41154;45.394;5.734;2023-05-12T00:48:56;96624.41;;;9.91;100.00
55289;BME280;41154;45.394;5.734;2023-05-12T00:51:24;96615.53;;;9.90;100.00
55289;BME280;41154;45.394;5.734;2023-05-12T00:53:50;96612.41;;;9.99;100.00
55289;BME280;41154;45.394;5.734;2023-05-12T00:56:19;96605.69;;;9.96;100.00
55289;BME280;41154;45.394;5.734;2023-05-12T00:58:46;96598.69;;;9.95;100.00
55289;BME280;41154;45.394;5.734;2023-05-12T01:01:13;96601.88;;;9.92;100.00
55289;BME280;41154;45.394;5.734;2023-05-12T01:03:39;96590.84;;;9.83;100.00
55289;BME280;41154;45.394;5.734;2023-05-12T01:06:14;96589.56;;;9.91;100.00
55289;BME280;41154;45.394;5.734;2023-05-12T01:08:41;96598.41;;;9.92;100.00
55289;BME280;41154;45.394;5.734;2023-05-12T01:11:08;96599.97;;;10.25;100.00
55289;BME280;41154;45.394;5.734;2023-05-12T01:13:34;96602.56;;;10.10;100.00
55289;BME280;41154;45.394;5.734;2023-05-12T01:16:01;96594.75;;;10.03;100.00
55289;BME280;41154;45.394;5.734;2023-05-12T01:18:31;96599.06;;;10.09;100.00
55289;BME280;41154;45.394;5.734;2023-05-12T01:20:59;96600.72;;;10.48;100.00
55289;BME280;41154;45.394;5.734;2023-05-12T01:23:27;96592.31;;;10.34;100.00
55289;BME280;41154;45.394;5.734;2023-05-12T01:26:02;96594.31;;;10.54;100.00
55289;BME280;41154;45.394;5.734;2023-05-12T01:28:29;96594.88;;;10.23;100.00
55289;BME280;41154;45.394;5.734;2023-05-12T01:30:55;96596.69;;;10.13;100.00
55289;BME280;41154;45.394;5.734;2023-05-12T01:33:21;96582.06;;;10.25;100.00
55289;BME280;41154;45.394;5.734;2023-05-12T01:35:48;96598.16;;;10.31;100.00
55289;BME280;41154;45.394;5.734;2023-05-12T01:38:14;96589.75;;;10.17;100.00
55289;BME280;41154;45.394;5.734;2023-05-12T01:40:40;96597.19;;;10.10;100.00
55289;BME280;41154;45.394;5.734;2023-05-12T01:43:06;96592.47;;;10.22;100.00
55289;BME280;41154;45.394;5.734;2023-05-12T01:45:32;96591.50;;;10.33;100.00
55289;BME280;41154;45.394;5.734;2023-05-12T01:47:57;96596.38;;;10.41;100.00
55289;BME280;41154;45.394;5.734;2023-05-12T01:50:24;96593.44;;;10.43;100.00
55289;BME280;41154;45.394;5.734;2023-05-12T01:52:49;96588.84;;;10.33;100.00
55289;BME280;41154;45.394;5.734;2023-05-12T01:55:17;96590.47;;;10.39;100.00
55289;BME280;41154;45.394;5.734;2023-05-12T01:57:52;96587.31;;;10.10;100.00
55289;BME280;41154;45.394;5.734;2023-05-12T02:00:19;96592.97;;;10.19;100.00
55289;BME280;41154;45.394;5.734;2023-05-12T02:02:47;96588.22;;;10.26;100.00
55289;BME280;41154;45.394;5.734;2023-05-12T02:05:13;96592.91;;;10.08;100.00
55289;BME280;41154;45.394;5.734;2023-05-12T02:07:41;96588.34;;;10.09;100.00
55289;BME280;41154;45.394;5.734;2023-05-12T02:10:08;96591.38;;;10.18;100.00
55289;BME280;41154;45.394;5.734;2023-05-12T02:12:34;96588.75;;;10.28;100.00
55289;BME280;41154;45.394;5.734;2023-05-12T02:15:00;96585.38;;;10.05;100.00
55289;BME280;41154;45.394;5.734;2023-05-12T02:17:26;96589.22;;;10.15;100.00
55289;BME280;41154;45.394;5.734;2023-05-12T02:19:56;96585.31;;;9.95;100.00
55289;BME280;41154;45.394;5.734;2023-05-12T02:22:22;96585.97;;;10.13;100.00
55289;BME280;41154;45.394;5.734;2023-05-12T02:24:48;96584.09;;;10.13;100.00
55289;BME280;41154;45.394;5.734;2023-05-12T02:27:15;96579.31;;;9.83;100.00
55289;BME280;41154;45.394;5.734;2023-05-12T02:29:40;96586.19;;;10.06;100.00
55289;BME280;41154;45.394;5.734;2023-05-12T02:32:07;96588.69;;;10.18;100.00
55289;BME280;41154;45.394;5.734;2023-05-12T02:34:35;96584.41;;;10.22;100.00
55289;BME280;41154;45.394;5.734;2023-05-12T02:37:00;96578.50;;;10.20;100.00
55289;BME280;41154;45.394;5.734;2023-05-12T02:39:27;96579.56;;;10.19;100.00
55289;BME280;41154;45.394;5.734;2023-05-12T02:41:54;96581.72;;;10.17;100.00
55289;BME280;41154;45.394;5.734;2023-05-12T02:44:20;96577.25;;;9.95;100.00
55289;BME280;41154;45.394;5.734;2023-05-12T02:46:47;96573.94;;;10.15;100.00
55289;BME280;41154;45.394;5.734;2023-05-12T02:49:13;96572.81;;;10.11;100.00
55289;BME280;41154;45.394;5.734;2023-05-12T02:51:39;96569.81;;;10.02;100.00
55289;BME280;41154;45.394;5.734;2023-05-12T02:54:05;96561.81;;;10.07;100.00
55289;BME280;41154;45.394;5.734;2023-05-12T02:56:31;96570.13;;;10.11;100.00
55289;BME280;41154;45.394;5.734;2023-05-12T02:58:57;96565.88;;;10.15;100.00
55289;BME280;41154;45.394;5.734;2023-05-12T03:01:22;96573.66;;;10.12;100.00
55289;BME280;41154;45.394;5.734;2023-05-12T03:03:49;96570.75;;;10.23;100.00
55289;BME280;41154;45.394;5.734;2023-05-12T03:06:15;96563.97;;;10.11;100.00
55289;BME280;41154;45.394;5.734;2023-05-12T03:08:41;96565.28;;;10.08;100.00
55289;BME280;41154;45.394;5.734;2023-05-12T03:11:07;96558.75;;;9.94;100.00
55289;BME280;41154;45.394;5.734;2023-05-12T03:13:33;96558.34;;;10.07;100.00
55289;BME280;41154;45.394;5.734;2023-05-12T03:16:01;96560.28;;;10.17;100.00
55289;BME280;41154;45.394;5.734;2023-05-12T03:18:27;96558.97;;;10.24;100.00
55289;BME280;41154;45.394;5.734;2023-05-12T03:20:53;96566.63;;;10.05;100.00
55289;BME280;41154;45.394;5.734;2023-05-12T03:23:21;96553.63;;;9.87;100.00
55289;BME280;41154;45.394;5.734;2023-05-12T03:25:47;96552.13;;;10.01;100.00
55289;BME280;41154;45.394;5.734;2023-05-12T03:28:13;96549.84;;;9.83;100.00
55289;BME280;41154;45.394;5.734;2023-05-12T03:30:39;96551.59;;;9.99;100.00
55289;BME280;41154;45.394;5.734;2023-05-12T03:33:05;96550.84;;;10.09;100.00
55289;BME280;41154;45.394;5.734;2023-05-12T03:35:31;96549.06;;;10.25;100.00
55289;BME280;41154;45.394;5.734;2023-05-12T03:38:00;96545.56;;;10.24;100.00
55289;BME280;41154;45.394;5.734;2023-05-12T03:40:26;96541.94;;;10.03;100.00
55289;BME280;41154;45.394;5.734;2023-05-12T03:42:51;96547.31;;;10.03;100.00
55289;BME280;41154;45.394;5.734;2023-05-12T03:45:17;96544.84;;;9.97;100.00
55289;BME280;41154;45.394;5.734;2023-05-12T03:47:43;96548.94;;;10.04;100.00
55289;BME280;41154;45.394;5.734;2023-05-12T03:50:09;96546.53;;;10.08;100.00
55289;BME280;41154;45.394;5.734;2023-05-12T03:52:36;96540.41;;;9.75;100.00
55289;BME280;41154;45.394;5.734;2023-05-12T03:55:04;96535.78;;;10.03;100.00
55289;BME280;41154;45.394;5.734;2023-05-12T03:57:31;96539.97;;;9.88;100.00
55289;BME280;41154;45.394;5.734;2023-05-12T03:59:57;96542.53;;;9.73;100.00
55289;BME280;41154;45.394;5.734;2023-05-12T04:02:23;96535.78;;;9.65;100.00
55289;BME280;41154;45.394;5.734;2023-05-12T04:04:49;96544.63;;;9.66;100.00
55289;BME280;41154;45.394;5.734;2023-05-12T04:07:15;96542.94;;;9.60;100.00
55289;BME280;41154;45.394;5.734;2023-05-12T04:09:41;96536.97;;;9.80;100.00
55289;BME280;41154;45.394;5.734;2023-05-12T04:12:09;96538.47;;;10.03;100.00
55289;BME280;41154;45.394;5.734;2023-05-12T04:14:34;96535.81;;;9.70;100.00
55289;BME280;41154;45.394;5.734;2023-05-12T04:17:01;96537.47;;;9.77;100.00
55289;BME280;41154;45.394;5.734;2023-05-12T04:19:26;96542.44;;;9.63;100.00
55289;BME280;41154;45.394;5.734;2023-05-12T04:21:52;96538.56;;;9.76;100.00
55289;BME280;41154;45.394;5.734;2023-05-12T04:24:18;96536.53;;;9.61;100.00
55289;BME280;41154;45.394;5.734;2023-05-12T04:26:44;96535.03;;;9.75;100.00
55289;BME280;41154;45.394;5.734;2023-05-12T04:29:10;96536.91;;;9.69;100.00
55289;BME280;41154;45.394;5.734;2023-05-12T04:31:37;96545.47;;;9.71;100.00
55289;BME280;41154;45.394;5.734;2023-05-12T04:34:04;96544.09;;;9.69;100.00
55289;BME280;41154;45.394;5.734;2023-05-12T04:36:31;96546.47;;;9.98;100.00
55289;BME280;41154;45.394;5.734;2023-05-12T04:38:58;96544.75;;;9.81;100.00
55289;BME280;41154;45.394;5.734;2023-05-12T04:41:24;96540.25;;;9.87;100.00
55289;BME280;41154;45.394;5.734;2023-05-12T04:43:50;96543.41;;;9.79;100.00
55289;BME280;41154;45.394;5.734;2023-05-12T04:46:16;96552.47;;;10.10;100.00
55289;BME280;41154;45.394;5.734;2023-05-12T04:48:42;96549.84;;;9.83;100.00
55289;BME280;41154;45.394;5.734;2023-05-12T04:51:09;96553.84;;;10.18;100.00
55289;BME280;41154;45.394;5.734;2023-05-12T04:53:34;96562.31;;;10.04;100.00
55289;BME280;41154;45.394;5.734;2023-05-12T04:56:02;96563.13;;;10.05;100.00
55289;BME280;41154;45.394;5.734;2023-05-12T04:58:31;96566.16;;;10.19;100.00
55289;BME280;41154;45.394;5.734;2023-05-12T05:00:57;96579.03;;;10.17;100.00
55289;BME280;41154;45.394;5.734;2023-05-12T05:03:24;96565.34;;;10.13;100.00
55289;BME280;41154;45.394;5.734;2023-05-12T05:05:50;96561.03;;;9.75;100.00
55289;BME280;41154;45.394;5.734;2023-05-12T05:08:16;96568.00;;;9.76;100.00
55289;BME280;41154;45.394;5.734;2023-05-12T05:10:43;96568.72;;;9.66;100.00
55289;BME280;41154;45.394;5.734;2023-05-12T05:13:08;96572.94;;;9.89;100.00
55289;BME280;41154;45.394;5.734;2023-05-12T05:15:34;96577.22;;;9.90;100.00
55289;BME280;41154;45.394;5.734;2023-05-12T05:18:00;96584.75;;;9.93;100.00
55289;BME280;41154;45.394;5.734;2023-05-12T05:20:26;96581.75;;;10.22;100.00
55289;BME280;41154;45.394;5.734;2023-05-12T05:22:54;96588.22;;;10.26;100.00
55289;BME280;41154;45.394;5.734;2023-05-12T05:25:20;96581.84;;;10.00;100.00
55289;BME280;41154;45.394;5.734;2023-05-12T05:27:47;96592.19;;;10.18;100.00
55289;BME280;41154;45.394;5.734;2023-05-12T05:30:13;96586.53;;;10.15;100.00
55289;BME280;41154;45.394;5.734;2023-05-12T05:32:39;96584.78;;;9.98;100.00
55289;BME280;41154;45.394;5.734;2023-05-12T05:35:06;96586.03;;;10.18;100.00
55289;BME280;41154;45.394;5.734;2023-05-12T05:37:35;96586.56;;;9.87;100.00
55289;BME280;41154;45.394;5.734;2023-05-12T05:40:01;96583.97;;;9.93;100.00
55289;BME280;41154;45.394;5.734;2023-05-12T05:42:28;96587.44;;;9.93;100.00
55289;BME280;41154;45.394;5.734;2023-05-12T05:44:54;96580.72;;;9.90;100.00
55289;BME280;41154;45.394;5.734;2023-05-12T05:47:23;96591.91;;;10.20;100.00
55289;BME280;41154;45.394;5.734;2023-05-12T05:49:49;96586.28;;;10.16;100.00
55289;BME280;41154;45.394;5.734;2023-05-12T05:52:15;96584.53;;;10.00;100.00
55289;BME280;41154;45.394;5.734;2023-05-12T05:54:41;96581.31;;;9.98;100.00
55289;BME280;41154;45.394;5.734;2023-05-12T05:57:07;96589.06;;;9.94;100.00
55289;BME280;41154;45.394;5.734;2023-05-12T05:59:33;96591.00;;;10.04;100.00
55289;BME280;41154;45.394;5.734;2023-05-12T06:02:01;96593.41;;;10.00;100.00
55289;BME280;41154;45.394;5.734;2023-05-12T06:04:28;96594.41;;;9.94;100.00
55289;BME280;41154;45.394;5.734;2023-05-12T06:06:54;96579.53;;;10.08;100.00
55289;BME280;41154;45.394;5.734;2023-05-12T06:09:19;96597.09;;;10.32;100.00
55289;BME280;41154;45.394;5.734;2023-05-12T06:11:45;96594.81;;;10.13;100.00
55289;BME280;41154;45.394;5.734;2023-05-12T06:14:11;96592.53;;;10.32;100.00
55289;BME280;41154;45.394;5.734;2023-05-12T06:16:37;96599.06;;;10.41;100.00
55289;BME280;41154;45.394;5.734;2023-05-12T06:19:03;96597.16;;;10.37;100.00
55289;BME280;41154;45.394;5.734;2023-05-12T06:21:29;96593.56;;;10.26;100.00
55289;BME280;41154;45.394;5.734;2023-05-12T06:23:56;96602.09;;;10.18;100.00
55289;BME280;41154;45.394;5.734;2023-05-12T06:26:22;96606.19;;;10.25;100.00
55289;BME280;41154;45.394;5.734;2023-05-12T06:28:48;96604.63;;;10.77;100.00
55289;BME280;41154;45.394;5.734;2023-05-12T06:31:14;96600.97;;;10.99;100.00
55289;BME280;41154;45.394;5.734;2023-05-12T06:33:40;96604.28;;;11.27;100.00
55289;BME280;41154;45.394;5.734;2023-05-12T06:36:05;96605.63;;;11.29;100.00
55289;BME280;41154;45.394;5.734;2023-05-12T06:38:32;96602.09;;;11.13;100.00
55289;BME280;41154;45.394;5.734;2023-05-12T06:40:58;96606.78;;;10.75;100.00
55289;BME280;41154;45.394;5.734;2023-05-12T06:43:23;96603.50;;;10.68;100.00
55289;BME280;41154;45.394;5.734;2023-05-12T06:45:53;96600.75;;;10.58;100.00
55289;BME280;41154;45.394;5.734;2023-05-12T06:48:21;96607.13;;;10.47;100.00
55289;BME280;41154;45.394;5.734;2023-05-12T06:50:47;96607.28;;;10.72;100.00
55289;BME280;41154;45.394;5.734;2023-05-12T06:53:13;96602.28;;;10.91;100.00
55289;BME280;41154;45.394;5.734;2023-05-12T06:55:39;96610.22;;;10.71;100.00
55289;BME280;41154;45.394;5.734;2023-05-12T06:58:07;96601.56;;;11.22;100.00
55289;BME280;41154;45.394;5.734;2023-05-12T07:00:33;96609.56;;;11.01;100.00
55289;BME280;41154;45.394;5.734;2023-05-12T07:02:59;96614.84;;;10.86;100.00
55289;BME280;41154;45.394;5.734;2023-05-12T07:05:25;96608.56;;;11.23;100.00
55289;BME280;41154;45.394;5.734;2023-05-12T07:07:51;96618.25;;;11.34;100.00
55289;BME280;41154;45.394;5.734;2023-05-12T07:10:16;96604.56;;;10.67;100.00
55289;BME280;41154;45.394;5.734;2023-05-12T07:12:42;96608.06;;;10.68;100.00
55289;BME280;41154;45.394;5.734;2023-05-12T07:15:08;96615.94;;;10.42;100.00
55289;BME280;41154;45.394;5.734;2023-05-12T07:17:34;96606.16;;;10.63;100.00
55289;BME280;41154;45.394;5.734;2023-05-12T07:20:00;96613.47;;;10.78;100.00
55289;BME280;41154;45.394;5.734;2023-05-12T07:22:26;96611.06;;;10.34;100.00
55289;BME280;41154;45.394;5.734;2023-05-12T07:24:52;96610.13;;;10.50;100.00
55289;BME280;41154;45.394;5.734;2023-05-12T07:27:18;96612.88;;;10.28;100.00
55289;BME280;41154;45.394;5.734;2023-05-12T07:29:43;96607.19;;;10.57;100.00
55289;BME280;41154;45.394;5.734;2023-05-12T07:32:09;96612.47;;;10.89;100.00
55289;BME280;41154;45.394;5.734;2023-05-12T07:34:35;96616.41;;;10.71;100.00
55289;BME280;41154;45.394;5.734;2023-05-12T07:37:00;96611.63;;;10.78;100.00
55289;BME280;41154;45.394;5.734;2023-05-12T07:39:28;96604.50;;;11.10;100.00
55289;BME280;41154;45.394;5.734;2023-05-12T07:41:57;96610.06;;;10.93;100.00
55289;BME280;41154;45.394;5.734;2023-05-12T07:44:23;96603.47;;;11.21;100.00
55289;BME280;41154;45.394;5.734;2023-05-12T07:46:48;96604.88;;;11.39;100.00
55289;BME280;41154;45.394;5.734;2023-05-12T07:49:14;96610.50;;;11.38;100.00
55289;BME280;41154;45.394;5.734;2023-05-12T07:51:40;96606.22;;;11.57;100.00
55289;BME280;41154;45.394;5.734;2023-05-12T07:54:06;96615.63;;;11.49;100.00
55289;BME280;41154;45.394;5.734;2023-05-12T07:56:32;96612.13;;;11.49;100.00
55289;BME280;41154;45.394;5.734;2023-05-12T07:58:57;96603.81;;;11.50;100.00
55289;BME280;41154;45.394;5.734;2023-05-12T08:01:24;96605.41;;;11.36;100.00
55289;BME280;41154;45.394;5.734;2023-05-12T08:07:38;96601.13;;;11.50;100.00
55289;BME280;41154;45.394;5.734;2023-05-12T08:10:05;96597.22;;;11.00;100.00
55289;BME280;41154;45.394;5.734;2023-05-12T08:12:32;96596.91;;;10.96;100.00
55289;BME280;41154;45.394;5.734;2023-05-12T08:14:58;96602.13;;;11.24;100.00
55289;BME280;41154;45.394;5.734;2023-05-12T08:17:24;96598.09;;;11.26;100.00
55289;BME280;41154;45.394;5.734;2023-05-12T08:19:49;96598.66;;;11.33;100.00
55289;BME280;41154;45.394;5.734;2023-05-12T08:22:16;96598.44;;;11.45;100.00
55289;BME280;41154;45.394;5.734;2023-05-12T08:24:42;96596.38;;;11.99;100.00
55289;BME280;41154;45.394;5.734;2023-05-12T08:27:08;96599.31;;;11.97;100.00
55289;BME280;41154;45.394;5.734;2023-05-12T08:29:35;96603.63;;;11.93;100.00
55289;BME280;41154;45.394;5.734;2023-05-12T08:32:03;96602.78;;;12.18;100.00
55289;BME280;41154;45.394;5.734;2023-05-12T08:34:30;96602.81;;;12.13;100.00
55289;BME280;41154;45.394;5.734;2023-05-12T08:37:00;96607.91;;;12.40;100.00
55289;BME280;41154;45.394;5.734;2023-05-12T08:39:26;96604.94;;;12.21;100.00
55289;BME280;41154;45.394;5.734;2023-05-12T08:44:37;96596.56;;;12.64;100.00
55289;BME280;41154;45.394;5.734;2023-05-12T08:47:04;96599.22;;;12.74;100.00
55289;BME280;41154;45.394;5.734;2023-05-12T08:49:32;96608.34;;;13.54;100.00
55289;BME280;41154;45.394;5.734;2023-05-12T08:52:03;96603.41;;;13.66;100.00
55289;BME280;41154;45.394;5.734;2023-05-12T08:54:29;96610.84;;;13.30;100.00
55289;BME280;41154;45.394;5.734;2023-05-12T08:56:56;96605.69;;;13.44;100.00
55289;BME280;41154;45.394;5.734;2023-05-12T08:59:24;96612.28;;;13.07;100.00
55289;BME280;41154;45.394;5.734;2023-05-12T09:01:54;96603.31;;;12.51;100.00
55289;BME280;41154;45.394;5.734;2023-05-12T09:04:21;96599.56;;;12.47;100.00
55289;BME280;41154;45.394;5.734;2023-05-12T09:07:16;96596.50;;;12.74;100.00
55289;BME280;41154;45.394;5.734;2023-05-12T09:09:44;96595.25;;;12.46;100.00
55289;BME280;41154;45.394;5.734;2023-05-12T09:12:15;96597.41;;;12.44;100.00
55289;BME280;41154;45.394;5.734;2023-05-12T09:14:44;96605.06;;;12.97;100.00
55289;BME280;41154;45.394;5.734;2023-05-12T09:17:11;96598.31;;;13.05;100.00
55289;BME280;41154;45.394;5.734;2023-05-12T09:19:37;96597.47;;;13.64;100.00
55289;BME280;41154;45.394;5.734;2023-05-12T09:22:05;96606.59;;;13.74;100.00
55289;BME280;41154;45.394;5.734;2023-05-12T09:24:40;96594.34;;;13.92;100.00
55289;BME280;41154;45.394;5.734;2023-05-12T09:27:06;96597.88;;;13.87;100.00
55289;BME280;41154;45.394;5.734;2023-05-12T09:29:32;96600.34;;;13.78;100.00
55289;BME280;41154;45.394;5.734;2023-05-12T09:32:00;96604.16;;;14.41;100.00
55289;BME280;41154;45.394;5.734;2023-05-12T09:36:59;96607.03;;;13.46;100.00
55289;BME280;41154;45.394;5.734;2023-05-12T09:39:26;96602.31;;;14.36;100.00
55289;BME280;41154;45.394;5.734;2023-05-12T09:41:53;96605.59;;;14.63;100.00
55289;BME280;41154;45.394;5.734;2023-05-12T09:44:20;96608.19;;;14.44;100.00
55289;BME280;41154;45.394;5.734;2023-05-12T09:46:46;96611.75;;;14.68;100.00
55289;BME280;41154;45.394;5.734;2023-05-12T09:49:20;96598.75;;;14.41;100.00
55289;BME280;41154;45.394;5.734;2023-05-12T09:51:46;96609.69;;;14.60;100.00
55289;BME280;41154;45.394;5.734;2023-05-12T09:54:26;96608.09;;;14.54;100.00
55289;BME280;41154;45.394;5.734;2023-05-12T09:56:56;96607.41;;;14.72;100.00
55289;BME280;41154;45.394;5.734;2023-05-12T09:59:24;96601.94;;;14.78;100.00
55289;BME280;41154;45.394;5.734;2023-05-12T10:01:54;96597.91;;;14.46;100.00
55289;BME280;41154;45.394;5.734;2023-05-12T10:04:23;96601.16;;;14.43;100.00
55289;BME280;41154;45.394;5.734;2023-05-12T10:06:50;96600.31;;;14.47;100.00
55289;BME280;41154;45.394;5.734;2023-05-12T10:09:24;96603.50;;;14.54;100.00
55289;BME280;41154;45.394;5.734;2023-05-12T10:11:51;96594.19;;;14.71;100.00
55289;BME280;41154;45.394;5.734;2023-05-12T10:14:17;96601.16;;;14.43;100.00
55289;BME280;41154;45.394;5.734;2023-05-12T10:16:48;96595.63;;;14.63;100.00
55289;BME280;41154;45.394;5.734;2023-05-12T10:19:14;96598.78;;;14.95;100.00
55289;BME280;41154;45.394;5.734;2023-05-12T10:21:42;96597.53;;;14.87;100.00
55289;BME280;41154;45.394;5.734;2023-05-12T10:24:14;96599.22;;;15.02;100.00
55289;BME280;41154;45.394;5.734;2023-05-12T10:26:44;96594.81;;;14.87;100.00
55289;BME280;41154;45.394;5.734;2023-05-12T10:29:11;96605.84;;;14.66;100.00
55289;BME280;41154;45.394;5.734;2023-05-12T10:31:38;96594.81;;;14.63;100.00
55289;BME280;41154;45.394;5.734;2023-05-12T10:34:04;96582.97;;;14.59;100.00
55289;BME280;41154;45.394;5.734;2023-05-12T10:36:42;96588.63;;;14.57;100.00
55289;BME280;41154;45.394;5.734;2023-05-12T10:39:08;96585.19;;;14.51;100.00
55289;BME280;41154;45.394;5.734;2023-05-12T10:41:34;96586.13;;;14.07;100.00
55289;BME280;41154;45.394;5.734;2023-05-12T10:44:01;96583.28;;;13.88;100.00
55289;BME280;41154;45.394;5.734;2023-05-12T10:46:27;96577.28;;;14.01;100.00
55289;BME280;41154;45.394;5.734;2023-05-12T10:51:45;96580.75;;;13.68;100.00
55289;BME280;41154;45.394;5.734;2023-05-12T10:54:19;96583.47;;;14.02;100.00
55289;BME280;41154;45.394;5.734;2023-05-12T10:56:46;96572.66;;;13.68;100.00
55289;BME280;41154;45.394;5.734;2023-05-12T10:59:23;96574.13;;;13.89;100.00
55289;BME280;41154;45.394;5.734;2023-05-12T11:02:14;96572.38;;;13.69;100.00
55289;BME280;41154;45.394;5.734;2023-05-12T11:04:46;96578.16;;;13.92;100.00
55289;BME280;41154;45.394;5.734;2023-05-12T11:07:14;96572.19;;;14.24;100.00
55289;BME280;41154;45.394;5.734;2023-05-12T11:09:44;96575.34;;;14.90;100.00
55289;BME280;41154;45.394;5.734;2023-05-12T11:12:11;96571.38;;;14.82;100.00
55289;BME280;41154;45.394;5.734;2023-05-12T11:14:38;96569.13;;;15.52;100.00
55289;BME280;41154;45.394;5.734;2023-05-12T11:17:04;96571.31;;;15.50;100.00
55289;BME280;41154;45.394;5.734;2023-05-12T11:19:31;96570.66;;;15.58;100.00
55289;BME280;41154;45.394;5.734;2023-05-12T11:22:04;96568.72;;;15.01;100.00
55289;BME280;41154;45.394;5.734;2023-05-12T11:24:32;96567.28;;;14.85;100.00
55289;BME280;41154;45.394;5.734;2023-05-12T11:26:58;96569.66;;;14.91;100.00
55289;BME280;41154;45.394;5.734;2023-05-12T11:29:23;96563.81;;;14.60;100.00
55289;BME280;41154;45.394;5.734;2023-05-12T11:31:50;96565.88;;;14.10;100.00
55289;BME280;41154;45.394;5.734;2023-05-12T11:34:23;96564.09;;;14.29;100.00
55289;BME280;41154;45.394;5.734;2023-05-12T11:36:51;96563.03;;;14.25;100.00
55289;BME280;41154;45.394;5.734;2023-05-12T11:39:18;96559.41;;;14.40;100.00
55289;BME280;41154;45.394;5.734;2023-05-12T11:41:46;96562.25;;;14.78;100.00
55289;BME280;41154;45.394;5.734;2023-05-12T11:44:20;96560.72;;;14.91;100.00
55289;BME280;41154;45.394;5.734;2023-05-12T11:49:31;96560.91;;;14.76;100.00
55289;BME280;41154;45.394;5.734;2023-05-12T11:51:59;96558.03;;;14.91;100.00
55289;BME280;41154;45.394;5.734;2023-05-12T11:54:27;96553.78;;;15.09;100.00
55289;BME280;41154;45.394;5.734;2023-05-12T11:56:55;96557.88;;;14.82;100.00
55289;BME280;41154;45.394;5.734;2023-05-12T11:59:32;96553.28;;;14.59;100.00
55289;BME280;41154;45.394;5.734;2023-05-12T12:02:00;96551.56;;;14.92;100.00
55289;BME280;41154;45.394;5.734;2023-05-12T12:04:36;96543.84;;;15.04;100.00
55289;BME280;41154;45.394;5.734;2023-05-12T12:07:06;96546.25;;;15.25;100.00
55289;BME280;41154;45.394;5.734;2023-05-12T12:09:37;96538.38;;;15.86;100.00
55289;BME280;41154;45.394;5.734;2023-05-12T12:12:06;96526.63;;;15.57;100.00
55289;BME280;41154;45.394;5.734;2023-05-12T12:14:33;96523.69;;;15.73;100.00
55289;BME280;41154;45.394;5.734;2023-05-12T12:17:00;96520.13;;;15.77;100.00
55289;BME280;41154;45.394;5.734;2023-05-12T12:19:27;96519.53;;;15.80;100.00
55289;BME280;41154;45.394;5.734;2023-05-12T12:21:54;96522.94;;;16.33;100.00
55289;BME280;41154;45.394;5.734;2023-05-12T12:24:19;96517.19;;;15.55;100.00
55289;BME280;41154;45.394;5.734;2023-05-12T12:26:45;96524.44;;;15.40;100.00
55289;BME280;41154;45.394;5.734;2023-05-12T12:29:11;96516.25;;;15.07;100.00
55289;BME280;41154;45.394;5.734;2023-05-12T12:31:37;96511.63;;;15.08;100.00
55289;BME280;41154;45.394;5.734;2023-05-12T12:34:03;96510.25;;;15.10;100.00
55289;BME280;41154;45.394;5.734;2023-05-12T12:36:30;96512.84;;;15.21;100.00
55289;BME280;41154;45.394;5.734;2023-05-12T12:38:56;96514.41;;;15.41;100.00
55289;BME280;41154;45.394;5.734;2023-05-12T12:41:23;96511.81;;;15.88;100.00
55289;BME280;41154;45.394;5.734;2023-05-12T12:43:50;96507.41;;;16.25;100.00
55289;BME280;41154;45.394;5.734;2023-05-12T12:46:17;96514.06;;;17.02;100.00
55289;BME280;41154;45.394;5.734;2023-05-12T12:48:43;96513.63;;;16.81;100.00
55289;BME280;41154;45.394;5.734;2023-05-12T12:51:09;96509.50;;;17.25;100.00
55289;BME280;41154;45.394;5.734;2023-05-12T12:53:36;96514.72;;;17.58;100.00
55289;BME280;41154;45.394;5.734;2023-05-12T12:56:03;96511.19;;;17.35;100.00
55289;BME280;41154;45.394;5.734;2023-05-12T12:58:28;96514.06;;;17.75;100.00
55289;BME280;41154;45.394;5.734;2023-05-12T13:00:55;96505.38;;;18.18;100.00
55289;BME280;41154;45.394;5.734;2023-05-12T13:03:20;96507.00;;;18.19;100.00
55289;BME280;41154;45.394;5.734;2023-05-12T13:05:48;96507.16;;;18.23;100.00